Turner, Oregon
Current Conditions -  °F | °C
As of 6:56 PM on Friday 24 Oct 2014 (Local Time) from KSLE Reporting Station
Overcast Overcast  
Wind Chill: 53°   Ceiling: 400
Heat Index: 53°   Visibility: 8mi
Dew Point: 51°   Wind: 6mph
Humidity: 93%   Direction: 360°N
Pressure: 29.76"   Gusts: NA
Location:  44.84°N, 122.95°W
Report Text: KSLE 250156Z 36005KT 8SM OVC004 12/11 A2976 RMK AO2 SLP076 T01170106
Loading
Personal Weather Stations






























Interactive Weather Map
Tropical Storm Tracking
New forecast layout! Learn more

10-Day Weather Forecast

Advertisements
Track Severe Weather on mobile